Time;durP1;ratioP1;P1;durP2;ratioP2;P2;SDS_P1;SDS_P2;PMS_P1;PMS_P2;Temp;Humidity;BMP_temperature;BMP_pressure;BME280_temperature;BME280_humidity;BME280_pressure;Samples;Min_cycle;Max_cycle;Signal;HPM_P1;HPM_P2
2022/09/18 00:00:00;;;;;;;;;;;9.50;99.90;;;;;;4741667;30;19933;-91
2022/09/18 00:02:26;;;;;;;;;;;9.50;99.90;;;;;;4768821;30;19933;-90
2022/09/18 00:04:52;;;;;;;;;;;9.40;99.90;;;;;;4759115;30;20006;-91
2022/09/18 00:07:18;;;;;;;;;;;9.40;99.90;;;;;;4771081;30;19972;-89
2022/09/18 00:09:44;;;;;;;;;;;10.50;99.90;;;;;;4744962;30;19983;-92
2022/09/18 00:12:10;;;;;;;;;;;9.40;99.90;;;;;;4749236;30;19933;-91
2022/09/18 00:14:38;;;;;;;;;;;9.40;99.90;;;;;;4762896;30;20369;-90
2022/09/18 00:17:03;;;;;;;;;;;8.90;99.90;;;;;;4754591;30;20318;-91
2022/09/18 00:19:29;;;;;;;;;;;9.30;99.90;;;;;;4737872;30;19925;-91
2022/09/18 00:21:55;;;;;;;;;;;9.40;99.90;;;;;;4747034;30;20374;-91
2022/09/18 00:24:22;;;;;;;;;;;9.30;99.90;;;;;;4747835;30;20314;-89
2022/09/18 00:26:47;;;;;;;;;;;9.30;99.90;;;;;;4743590;30;19930;-92
2022/09/18 00:29:14;;;;;;;;;;;9.20;99.90;;;;;;4741922;30;20211;-92
2022/09/18 00:31:40;;;;;;;;;;;9.20;99.90;;;;;;4740201;30;19926;-92
2022/09/18 00:34:07;;;;;;;;;;;9.30;99.90;;;;;;4755066;30;19933;-91
2022/09/18 00:36:34;;;;;;;;;;;9.20;99.90;;;;;;4771088;30;19925;-91
2022/09/18 00:39:00;;;;;;;;;;;9.20;99.90;;;;;;4743336;30;19926;-91
2022/09/18 00:41:30;;;;;;;;;;;9.20;99.90;;;;;;4770749;30;19933;-91
2022/09/18 00:44:18;;;;;;;;;;;9.30;99.90;;;;;;4769690;30;20006;-91
2022/09/18 00:46:44;;;;;;;;;;;9.40;99.90;;;;;;4769869;30;19953;-90
2022/09/18 00:49:18;;;;;;;;;;;9.30;99.90;;;;;;4760934;30;19975;-90
2022/09/18 00:51:44;;;;;;;;;;;9.40;99.90;;;;;;4745356;30;20497;-91
2022/09/18 00:54:48;;;;;;;;;;;9.40;99.90;;;;;;4741991;30;19925;-91
2022/09/18 00:57:43;;;;;;;;;;;9.40;99.90;;;;;;4698713;30;19934;-91
2022/09/18 01:00:15;;;;;;;;;;;9.50;99.90;;;;;;4672334;30;20079;-88
2022/09/18 01:02:41;;;;;;;;;;;9.40;99.90;;;;;;4719034;30;19983;-91
2022/09/18 01:05:08;;;;;;;;;;;9.40;99.90;;;;;;4740398;30;19930;-91
2022/09/18 01:07:39;;;;;;;;;;;9.40;99.90;;;;;;4756595;30;20063;-89
2022/09/18 01:10:05;;;;;;;;;;;9.40;99.90;;;;;;4749551;30;19933;-92
2022/09/18 01:12:49;;;;;;;;;;;9.90;99.90;;;;;;4768718;30;19926;-91
2022/09/18 01:15:28;;;;;;;;;;;9.40;99.90;;;;;;4765497;30;19925;-91
2022/09/18 01:18:00;;;;;;;;;;;9.40;99.90;;;;;;4751295;30;20331;-92
2022/09/18 01:20:26;;;;;;;;;;;9.40;99.90;;;;;;4767447;30;19925;-89
2022/09/18 01:22:52;;;;;;;;;;;9.40;99.90;;;;;;4783808;30;20002;-90
2022/09/18 01:25:21;;;;;;;;;;;9.50;99.90;;;;;;4782990;29;20016;-89
2022/09/18 01:28:05;;;;;;;;;;;9.40;99.90;;;;;;4769360;30;20476;-90
2022/09/18 01:30:31;;;;;;;;;;;10.00;99.90;;;;;;4761055;30;19972;-90
2022/09/18 01:33:06;;;;;;;;;;;8.70;99.90;;;;;;4739176;30;19969;-90
2022/09/18 01:35:38;;;;;;;;;;;9.50;99.90;;;;;;4756647;30;19936;-90
2022/09/18 01:38:33;;;;;;;;;;;9.60;99.90;;;;;;4758139;30;19967;-90
2022/09/18 01:41:14;;;;;;;;;;;9.50;99.90;;;;;;4756650;30;19943;-90
2022/09/18 01:43:41;;;;;;;;;;;9.50;99.90;;;;;;4738703;30;19933;-90
2022/09/18 01:46:08;;;;;;;;;;;9.50;99.90;;;;;;4746339;30;19925;-90
2022/09/18 01:48:36;;;;;;;;;;;9.60;99.90;;;;;;4749380;30;19925;-90
2022/09/18 01:51:08;;;;;;;;;;;9.50;99.90;;;;;;4747974;30;20293;-91
2022/09/18 01:53:36;;;;;;;;;;;9.60;99.90;;;;;;4768081;30;19930;-90
2022/09/18 01:56:06;;;;;;;;;;;9.60;99.90;;;;;;4748447;30;19930;-92
2022/09/18 01:58:32;;;;;;;;;;;9.50;99.90;;;;;;4738818;30;19930;-90
2022/09/18 02:00:59;;;;;;;;;;;8.70;99.90;;;;;;4768625;30;20450;-91
2022/09/18 02:03:26;;;;;;;;;;;9.40;99.90;;;;;;4766649;30;19983;-92
2022/09/18 02:05:59;;;;;;;;;;;9.40;99.90;;;;;;4743695;30;19935;-91
2022/09/18 02:08:29;;;;;;;;;;;8.60;99.90;;;;;;4769582;30;19926;-91
2022/09/18 02:10:58;;;;;;;;;;;9.40;99.90;;;;;;4767976;30;20004;-92
2022/09/18 02:13:27;;;;;;;;;;;9.40;99.90;;;;;;4761102;30;19926;-91
2022/09/18 02:15:56;;;;;;;;;;;9.40;99.90;;;;;;4765957;30;20009;-92
2022/09/18 02:18:26;;;;;;;;;;;9.30;99.90;;;;;;4782717;30;19929;-92
2022/09/18 02:20:52;;;;;;;;;;;9.30;99.90;;;;;;4742938;30;19929;-91
2022/09/18 02:23:18;;;;;;;;;;;9.30;99.90;;;;;;4767176;30;20429;-92
2022/09/18 02:25:47;;;;;;;;;;;9.30;99.90;;;;;;4752221;30;20020;-91
2022/09/18 02:28:15;;;;;;;;;;;8.70;99.90;;;;;;4747682;30;19969;-92
2022/09/18 02:30:41;;;;;;;;;;;9.30;99.90;;;;;;4749080;30;19926;-91
2022/09/18 02:33:25;;;;;;;;;;;9.30;99.90;;;;;;4768202;30;19926;-91
2022/09/18 02:35:57;;;;;;;;;;;9.30;99.90;;;;;;4761822;30;19933;-91
2022/09/18 02:38:29;;;;;;;;;;;9.30;99.90;;;;;;4763247;30;19929;-91
2022/09/18 02:41:03;;;;;;;;;;;8.60;99.90;;;;;;4747361;30;19926;-91
2022/09/18 02:43:41;;;;;;;;;;;9.30;99.90;;;;;;4750038;30;20477;-90
2022/09/18 02:46:20;;;;;;;;;;;9.30;99.90;;;;;;4767713;30;20012;-90
2022/09/18 02:48:51;;;;;;;;;;;9.30;99.90;;;;;;4762903;30;19944;-90
2022/09/18 02:51:25;;;;;;;;;;;9.40;99.90;;;;;;4745223;30;19929;-92
2022/09/18 02:53:51;;;;;;;;;;;9.40;99.90;;;;;;4758903;30;19925;-91
2022/09/18 02:56:37;;;;;;;;;;;9.40;99.90;;;;;;4763162;30;19948;-93
2022/09/18 02:59:25;;;;;;;;;;;9.30;99.90;;;;;;4768473;30;19929;-92
2022/09/18 03:01:51;;;;;;;;;;;9.40;99.90;;;;;;4752963;30;19979;-93
2022/09/18 03:04:21;;;;;;;;;;;8.90;99.90;;;;;;4768388;30;20731;-92
2022/09/18 03:06:47;;;;;;;;;;;9.40;99.90;;;;;;4749003;30;19929;-92
2022/09/18 03:09:14;;;;;;;;;;;9.40;99.90;;;;;;4776338;30;20012;-93
2022/09/18 03:11:40;;;;;;;;;;;9.50;99.90;;;;;;4758799;30;20381;-89
2022/09/18 03:14:06;;;;;;;;;;;9.50;99.90;;;;;;4753996;30;19991;-91
2022/09/18 03:16:32;;;;;;;;;;;9.50;99.90;;;;;;4757482;30;20399;-89
2022/09/18 03:18:58;;;;;;;;;;;9.60;99.90;;;;;;4764901;30;19987;-88
2022/09/18 03:21:24;;;;;;;;;;;9.60;99.90;;;;;;4755425;30;19932;-87
2022/09/18 03:23:50;;;;;;;;;;;9.60;99.90;;;;;;4732889;30;20007;-87
2022/09/18 03:26:15;;;;;;;;;;;9.60;99.90;;;;;;4753690;30;20021;-88
2022/09/18 03:28:43;;;;;;;;;;;9.60;99.90;;;;;;4756102;30;19936;-89
2022/09/18 03:31:11;;;;;;;;;;;9.60;99.90;;;;;;4784327;30;20017;-88
2022/09/18 03:33:37;;;;;;;;;;;9.70;99.90;;;;;;4740965;30;19926;-89
2022/09/18 03:36:04;;;;;;;;;;;9.70;99.90;;;;;;4757189;30;19930;-90
2022/09/18 03:38:30;;;;;;;;;;;9.70;99.90;;;;;;4763531;30;20000;-89
2022/09/18 03:40:56;;;;;;;;;;;9.70;99.90;;;;;;4758833;30;19925;-91
2022/09/18 03:43:22;;;;;;;;;;;9.60;99.90;;;;;;4770339;30;19929;-91
2022/09/18 03:45:50;;;;;;;;;;;9.70;99.90;;;;;;4768418;30;19931;-91
2022/09/18 03:48:16;;;;;;;;;;;8.80;99.90;;;;;;4759880;30;20048;-91
2022/09/18 03:50:41;;;;;;;;;;;9.60;99.90;;;;;;4754921;30;19933;-91
2022/09/18 03:53:07;;;;;;;;;;;9.70;99.90;;;;;;4768817;30;19932;-90
2022/09/18 03:55:34;;;;;;;;;;;9.80;99.90;;;;;;4770835;30;19957;-91
2022/09/18 03:58:00;;;;;;;;;;;9.60;99.90;;;;;;4756057;30;19925;-91
2022/09/18 04:00:25;;;;;;;;;;;9.70;99.90;;;;;;4757923;30;20399;-90
2022/09/18 04:02:51;;;;;;;;;;;9.70;99.90;;;;;;4752644;30;19929;-90
2022/09/18 04:05:17;;;;;;;;;;;9.70;99.90;;;;;;4755459;30;19925;-91
2022/09/18 04:07:42;;;;;;;;;;;9.70;99.90;;;;;;4754806;30;19929;-88
2022/09/18 04:10:08;;;;;;;;;;;9.70;99.90;;;;;;4742290;30;19932;-90
2022/09/18 04:12:33;;;;;;;;;;;9.60;99.90;;;;;;4753297;30;19937;-90
2022/09/18 04:14:59;;;;;;;;;;;10.70;99.90;;;;;;4753754;30;19932;-91
2022/09/18 04:17:25;;;;;;;;;;;9.60;99.90;;;;;;4756506;30;20021;-91
2022/09/18 04:19:51;;;;;;;;;;;9.60;99.90;;;;;;4745483;30;19929;-90
2022/09/18 04:22:17;;;;;;;;;;;9.60;99.90;;;;;;4744000;30;20393;-90
2022/09/18 04:24:44;;;;;;;;;;;9.60;99.90;;;;;;4743944;30;19930;-91
2022/09/18 04:27:12;;;;;;;;;;;8.70;99.90;;;;;;4748106;30;19929;-91
2022/09/18 04:29:37;;;;;;;;;;;9.70;99.90;;;;;;4741142;30;19925;-92
2022/09/18 04:32:04;;;;;;;;;;;9.60;99.90;;;;;;4755605;30;19947;-92
2022/09/18 04:34:30;;;;;;;;;;;9.70;99.90;;;;;;4753699;30;19929;-92
2022/09/18 04:36:55;;;;;;;;;;;9.70;99.90;;;;;;4742880;30;19932;-92
2022/09/18 04:39:21;;;;;;;;;;;9.60;99.90;;;;;;4742072;30;19926;-91
2022/09/18 04:41:48;;;;;;;;;;;9.70;99.90;;;;;;4747774;30;20043;-90
2022/09/18 04:44:13;;;;;;;;;;;9.60;99.90;;;;;;4752115;30;20330;-91
2022/09/18 04:46:39;;;;;;;;;;;9.70;99.90;;;;;;4743797;30;19926;-91
2022/09/18 04:49:05;;;;;;;;;;;9.70;99.90;;;;;;4749189;30;20366;-91
2022/09/18 04:51:30;;;;;;;;;;;9.60;99.90;;;;;;4745745;30;20288;-91
2022/09/18 04:53:56;;;;;;;;;;;9.70;99.90;;;;;;4740279;30;19925;-89
2022/09/18 04:56:22;;;;;;;;;;;9.70;99.90;;;;;;4747149;30;19930;-89
2022/09/18 04:58:50;;;;;;;;;;;10.70;99.90;;;;;;4748910;30;19925;-90
2022/09/18 05:01:16;;;;;;;;;;;9.60;99.90;;;;;;4747906;30;20407;-90
2022/09/18 05:03:41;;;;;;;;;;;9.60;99.90;;;;;;4754143;30;19933;-89
2022/09/18 05:06:07;;;;;;;;;;;9.70;99.90;;;;;;4758445;30;20400;-89
2022/09/18 05:08:33;;;;;;;;;;;9.60;99.90;;;;;;4755275;30;19925;-91
2022/09/18 05:10:59;;;;;;;;;;;9.60;99.90;;;;;;4753684;30;19925;-90
2022/09/18 05:13:25;;;;;;;;;;;9.70;99.90;;;;;;4742523;30;19925;-90
2022/09/18 05:15:54;;;;;;;;;;;9.70;99.90;;;;;;4748833;30;20308;-90
2022/09/18 05:18:20;;;;;;;;;;;9.60;99.90;;;;;;4738385;30;19925;-91
2022/09/18 05:20:46;;;;;;;;;;;9.60;99.90;;;;;;4749835;30;19944;-90
2022/09/18 05:23:12;;;;;;;;;;;9.70;99.90;;;;;;4760011;30;19926;-90
2022/09/18 05:25:37;;;;;;;;;;;9.60;99.90;;;;;;4742404;30;19932;-90
2022/09/18 05:28:03;;;;;;;;;;;9.60;99.90;;;;;;4763921;30;19925;-90
2022/09/18 05:30:30;;;;;;;;;;;9.80;99.90;;;;;;4763059;30;19925;-91
2022/09/18 05:33:01;;;;;;;;;;;9.70;99.90;;;;;;4740087;30;19982;-91
2022/09/18 05:35:28;;;;;;;;;;;9.70;99.90;;;;;;4761456;30;19976;-91
2022/09/18 05:37:54;;;;;;;;;;;9.70;99.90;;;;;;4746713;30;19933;-90
2022/09/18 05:40:20;;;;;;;;;;;9.90;99.90;;;;;;4750217;30;20001;-92
2022/09/18 05:42:46;;;;;;;;;;;9.70;99.90;;;;;;4747886;30;20016;-91
2022/09/18 05:45:15;;;;;;;;;;;9.80;99.90;;;;;;4751959;30;20396;-90
2022/09/18 05:47:41;;;;;;;;;;;9.80;99.90;;;;;;4743303;30;19925;-89
2022/09/18 05:50:07;;;;;;;;;;;9.80;99.90;;;;;;4739390;30;19932;-89
2022/09/18 05:52:33;;;;;;;;;;;9.80;99.90;;;;;;4767376;30;20174;-89
2022/09/18 05:55:02;;;;;;;;;;;9.80;99.90;;;;;;4750069;30;20128;-89
2022/09/18 05:57:27;;;;;;;;;;;10.80;99.90;;;;;;4744173;30;19933;-90
2022/09/18 05:59:53;;;;;;;;;;;9.80;99.90;;;;;;4743510;30;19934;-90
2022/09/18 06:02:19;;;;;;;;;;;9.80;99.90;;;;;;4741864;30;19925;-90
2022/09/18 06:04:44;;;;;;;;;;;9.80;99.90;;;;;;4769661;30;20006;-89
2022/09/18 06:07:11;;;;;;;;;;;9.80;99.90;;;;;;4760613;30;19932;-89
2022/09/18 06:09:39;;;;;;;;;;;9.80;99.90;;;;;;4747090;30;19933;-89
2022/09/18 06:12:08;;;;;;;;;;;9.70;99.90;;;;;;4748020;30;19979;-88
2022/09/18 06:14:34;;;;;;;;;;;9.20;99.90;;;;;;4743327;30;19980;-88
2022/09/18 06:16:59;;;;;;;;;;;9.80;99.90;;;;;;4739479;30;19932;-88
2022/09/18 06:19:25;;;;;;;;;;;9.80;99.90;;;;;;4743626;30;19935;-89
2022/09/18 06:21:51;;;;;;;;;;;9.90;99.90;;;;;;4747836;30;20002;-89
2022/09/18 06:24:16;;;;;;;;;;;9.80;99.90;;;;;;4754134;30;19965;-89
2022/09/18 06:26:42;;;;;;;;;;;8.70;99.90;;;;;;4738261;30;20415;-89
2022/09/18 06:29:08;;;;;;;;;;;9.80;99.90;;;;;;4748646;30;19942;-89
2022/09/18 06:31:33;;;;;;;;;;;9.80;99.90;;;;;;4744243;30;19925;-93
2022/09/18 06:33:59;;;;;;;;;;;9.90;99.90;;;;;;4747861;30;19925;-93
2022/09/18 06:36:24;;;;;;;;;;;9.80;99.90;;;;;;4745929;30;19925;-93
2022/09/18 06:38:50;;;;;;;;;;;9.80;99.90;;;;;;4739119;30;20388;-89
2022/09/18 06:41:16;;;;;;;;;;;9.80;99.90;;;;;;4759991;30;19932;-93
2022/09/18 06:43:41;;;;;;;;;;;9.80;99.90;;;;;;4767729;30;19926;-91
2022/09/18 06:46:09;;;;;;;;;;;9.80;99.90;;;;;;4749404;30;19933;-86
2022/09/18 06:48:34;;;;;;;;;;;8.60;99.90;;;;;;4757748;30;20012;-86
2022/09/18 06:51:00;;;;;;;;;;;8.70;99.90;;;;;;4760477;30;19925;-87
2022/09/18 06:53:26;;;;;;;;;;;9.90;99.90;;;;;;4751816;30;19926;-88
2022/09/18 06:55:56;;;;;;;;;;;11.00;99.90;;;;;;4757332;30;19929;-87
2022/09/18 06:58:22;;;;;;;;;;;9.90;99.90;;;;;;4754741;30;19929;-88
2022/09/18 07:00:47;;;;;;;;;;;9.90;99.90;;;;;;4771970;30;20361;-87
2022/09/18 07:03:13;;;;;;;;;;;9.90;99.90;;;;;;4763321;30;19978;-87
2022/09/18 07:05:41;;;;;;;;;;;8.60;99.90;;;;;;4755470;30;20012;-88
2022/09/18 07:08:06;;;;;;;;;;;9.90;99.90;;;;;;4763741;30;19932;-89
2022/09/18 07:10:32;;;;;;;;;;;9.90;99.90;;;;;;4769026;30;21780;-81
2022/09/18 07:12:58;;;;;;;;;;;9.90;99.90;;;;;;4763150;30;20082;-85
2022/09/18 07:15:25;;;;;;;;;;;9.90;99.90;;;;;;4763509;30;19932;-91
2022/09/18 07:17:51;;;;;;;;;;;10.00;99.90;;;;;;4758584;30;20288;-90
2022/09/18 07:20:17;;;;;;;;;;;10.00;99.90;;;;;;4771686;30;19933;-87
2022/09/18 07:22:43;;;;;;;;;;;10.00;99.90;;;;;;4767236;30;19933;-85
2022/09/18 07:25:09;;;;;;;;;;;10.00;99.90;;;;;;4758009;30;19933;-85
2022/09/18 07:27:35;;;;;;;;;;;9.90;99.90;;;;;;4768065;30;19926;-86
2022/09/18 07:30:00;;;;;;;;;;;10.00;99.90;;;;;;4770638;30;19926;-86
2022/09/18 07:32:26;;;;;;;;;;;10.00;99.90;;;;;;4735388;30;19925;-86
2022/09/18 07:34:52;;;;;;;;;;;10.00;99.90;;;;;;4755142;30;19989;-88
2022/09/18 07:37:18;;;;;;;;;;;10.00;99.90;;;;;;4748714;30;20012;-85
2022/09/18 07:39:43;;;;;;;;;;;10.00;99.90;;;;;;4768684;30;19947;-86
2022/09/18 07:42:09;;;;;;;;;;;10.10;99.90;;;;;;4766525;30;19973;-86
2022/09/18 07:44:35;;;;;;;;;;;10.10;99.90;;;;;;4740786;30;19934;-86
2022/09/18 07:47:01;;;;;;;;;;;10.10;99.90;;;;;;4769215;30;19938;-86
2022/09/18 07:49:26;;;;;;;;;;;10.10;99.90;;;;;;4758118;30;19983;-86
2022/09/18 07:51:52;;;;;;;;;;;10.10;99.90;;;;;;4754825;30;19934;-84
2022/09/18 07:54:18;;;;;;;;;;;10.10;99.90;;;;;;4748565;30;19925;-86
2022/09/18 07:56:43;;;;;;;;;;;10.10;99.90;;;;;;4748066;30;20024;-86
2022/09/18 07:59:09;;;;;;;;;;;10.10;99.90;;;;;;4770347;30;19932;-84
2022/09/18 08:01:34;;;;;;;;;;;10.10;99.90;;;;;;4764085;30;19926;-85
2022/09/18 08:04:01;;;;;;;;;;;10.10;99.90;;;;;;4751458;30;19929;-85
2022/09/18 08:06:27;;;;;;;;;;;10.10;99.90;;;;;;4755171;30;20377;-85
2022/09/18 08:08:52;;;;;;;;;;;10.10;99.90;;;;;;4746487;30;19940;-91
2022/09/18 08:11:18;;;;;;;;;;;10.10;99.90;;;;;;4769282;30;20445;-90
2022/09/18 08:13:46;;;;;;;;;;;10.00;99.90;;;;;;4764863;30;19925;-88
2022/09/18 08:16:12;;;;;;;;;;;10.10;99.90;;;;;;4770106;30;20038;-84
2022/09/18 08:18:38;;;;;;;;;;;10.10;99.90;;;;;;4754926;30;20321;-88
2022/09/18 08:21:04;;;;;;;;;;;10.00;99.90;;;;;;4769990;30;20061;-86
2022/09/18 08:23:30;;;;;;;;;;;10.00;99.90;;;;;;4770397;30;20318;-85
2022/09/18 08:25:58;;;;;;;;;;;10.00;99.90;;;;;;4758355;30;19929;-85
2022/09/18 08:28:23;;;;;;;;;;;10.00;99.90;;;;;;4766749;30;19979;-86
2022/09/18 08:30:49;;;;;;;;;;;10.00;99.90;;;;;;4740378;30;20029;-87
2022/09/18 08:33:17;;;;;;;;;;;10.10;99.90;;;;;;4771089;30;19933;-88
2022/09/18 08:35:43;;;;;;;;;;;9.70;99.90;;;;;;4756841;30;19979;-85
2022/09/18 08:38:10;;;;;;;;;;;10.10;99.90;;;;;;4784905;29;19930;-86
2022/09/18 08:40:50;;;;;;;;;;;10.10;99.90;;;;;;4754945;30;19925;-87
2022/09/18 08:43:35;;;;;;;;;;;10.10;99.90;;;;;;4784139;29;19929;-84
2022/09/18 08:46:03;;;;;;;;;;;10.10;99.90;;;;;;4767704;30;19926;-89
2022/09/18 08:48:46;;;;;;;;;;;10.10;99.90;;;;;;4758895;30;20331;-92
2022/09/18 08:51:11;;;;;;;;;;;11.20;99.90;;;;;;4776527;30;19926;-89
2022/09/18 08:53:39;;;;;;;;;;;10.10;99.90;;;;;;4767705;30;20285;-87
2022/09/18 08:56:10;;;;;;;;;;;10.30;99.90;;;;;;4739534;30;19925;-87
2022/09/18 08:58:35;;;;;;;;;;;10.10;99.90;;;;;;4746269;30;20026;-87
2022/09/18 09:01:10;;;;;;;;;;;10.10;99.90;;;;;;4745418;30;19979;-87
2022/09/18 09:03:45;;;;;;;;;;;9.40;99.90;;;;;;4751759;30;20030;-87
2022/09/18 09:06:30;;;;;;;;;;;10.20;99.90;;;;;;4768473;30;19965;-88
2022/09/18 09:08:58;;;;;;;;;;;10.50;99.90;;;;;;4765349;30;20007;-87
2022/09/18 09:11:41;;;;;;;;;;;10.20;99.90;;;;;;4742613;30;20029;-88
2022/09/18 09:14:20;;;;;;;;;;;10.10;99.90;;;;;;4785403;30;19954;-89
2022/09/18 09:16:50;;;;;;;;;;;10.10;99.90;;;;;;4744443;30;20637;-89
2022/09/18 09:19:22;;;;;;;;;;;10.10;99.90;;;;;;4752201;30;20021;-89
2022/09/18 09:21:59;;;;;;;;;;;10.20;99.90;;;;;;4769092;30;19937;-89
2022/09/18 09:24:33;;;;;;;;;;;11.00;99.90;;;;;;4754258;30;19933;-90
2022/09/18 09:27:04;;;;;;;;;;;10.10;99.90;;;;;;4756409;30;20010;-91
2022/09/18 09:29:33;;;;;;;;;;;10.20;99.90;;;;;;4749355;30;19965;-91
2022/09/18 09:32:09;;;;;;;;;;;10.20;99.90;;;;;;4747605;30;19934;-90
2022/09/18 09:34:54;;;;;;;;;;;10.10;99.90;;;;;;4774370;30;20036;-90
2022/09/18 09:37:22;;;;;;;;;;;10.10;99.90;;;;;;4753413;30;20365;-92
2022/09/18 09:39:51;;;;;;;;;;;10.10;99.90;;;;;;4769807;30;19995;-91
2022/09/18 09:42:22;;;;;;;;;;;10.20;99.90;;;;;;4740127;30;19933;-91
2022/09/18 09:44:53;;;;;;;;;;;10.20;99.90;;;;;;4766810;30;20308;-91
2022/09/18 09:47:41;;;;;;;;;;;10.30;99.90;;;;;;4753393;30;19947;-90
2022/09/18 09:50:25;;;;;;;;;;;10.20;99.90;;;;;;4759800;30;19925;-91
2022/09/18 09:52:57;;;;;;;;;;;10.20;99.90;;;;;;4766802;30;20542;-92
2022/09/18 09:55:41;;;;;;;;;;;10.20;99.90;;;;;;4764778;30;19984;-95
2022/09/18 09:58:26;;;;;;;;;;;10.20;99.90;;;;;;4792775;30;19925;-86
2022/09/18 10:01:00;;;;;;;;;;;10.10;99.90;;;;;;4751603;30;20308;-89
2022/09/18 10:03:32;;;;;;;;;;;10.20;99.90;;;;;;4768397;30;19925;-87
2022/09/18 10:06:00;;;;;;;;;;;10.10;99.90;;;;;;4767574;30;19933;-90
2022/09/18 10:08:37;;;;;;;;;;;9.80;99.90;;;;;;4752851;30;19933;-89
2022/09/18 10:11:07;;;;;;;;;;;10.10;99.90;;;;;;4760024;30;20365;-90
2022/09/18 10:13:54;;;;;;;;;;;10.10;99.90;;;;;;4762248;30;19933;-91
2022/09/18 10:16:32;;;;;;;;;;;10.20;99.90;;;;;;4741051;30;19992;-91
2022/09/18 10:19:02;;;;;;;;;;;10.20;99.90;;;;;;4773668;30;19925;-91
2022/09/18 10:21:33;;;;;;;;;;;10.20;99.90;;;;;;4755020;30;19932;-94
2022/09/18 10:24:21;;;;;;;;;;;10.20;99.90;;;;;;4751293;30;20263;-94
2022/09/18 10:26:52;;;;;;;;;;;9.90;99.90;;;;;;4774388;30;19925;-93
2022/09/18 10:29:20;;;;;;;;;;;10.20;99.90;;;;;;4772220;30;19946;-94
2022/09/18 10:31:48;;;;;;;;;;;10.30;99.90;;;;;;4761781;30;19925;-95
2022/09/18 10:34:32;;;;;;;;;;;9.40;99.90;;;;;;4776528;30;19925;-93
2022/09/18 10:40:07;;;;;;;;;;;9.80;99.90;;;;;;4756399;30;19929;-94
2022/09/18 10:42:43;;;;;;;;;;;10.30;99.90;;;;;;4740462;30;19934;-94
2022/09/18 10:45:41;;;;;;;;;;;10.40;99.90;;;;;;4760736;30;20454;-93
2022/09/18 10:48:13;;;;;;;;;;;10.40;99.90;;;;;;4730001;30;19925;-94
2022/09/18 10:50:52;;;;;;;;;;;10.40;99.90;;;;;;4753108;30;19925;-93
2022/09/18 10:53:27;;;;;;;;;;;10.40;99.90;;;;;;4757191;30;19926;-95
2022/09/18 10:56:03;;;;;;;;;;;;;;;;;;;;;
2022/09/18 10:58:30;;;;;;;;;;;10.60;99.90;;;;;;4774921;30;19926;-96
2022/09/18 11:01:04;;;;;;;;;;;10.60;99.90;;;;;;4761261;30;19936;-96
2022/09/18 11:03:49;;;;;;;;;;;10.70;99.90;;;;;;4775424;30;19921;-94
2022/09/18 11:06:18;;;;;;;;;;;10.60;99.90;;;;;;4764945;30;19933;-95
2022/09/18 11:08:49;;;;;;;;;;;10.60;99.90;;;;;;4782071;30;19921;-95
2022/09/18 11:11:27;;;;;;;;;;;10.70;99.90;;;;;;4741420;30;19952;-95
2022/09/18 11:14:04;;;;;;;;;;;10.70;99.90;;;;;;4751794;30;19929;-93
2022/09/18 11:16:32;;;;;;;;;;;10.90;99.90;;;;;;4772518;30;19980;-94
2022/09/18 11:19:02;;;;;;;;;;;10.80;99.90;;;;;;4746703;30;19985;-96
2022/09/18 11:21:30;;;;;;;;;;;10.90;99.90;;;;;;4765945;30;19925;-96
2022/09/18 11:24:03;;;;;;;;;;;10.80;99.90;;;;;;4762891;30;20009;-96
2022/09/18 11:26:29;;;;;;;;;;;10.90;99.90;;;;;;4758474;30;19929;-96
2022/09/18 11:29:01;;;;;;;;;;;10.90;99.90;;;;;;4776798;30;19926;-92
2022/09/18 11:31:36;;;;;;;;;;;9.80;99.90;;;;;;4757732;30;19925;-93
2022/09/18 11:34:11;;;;;;;;;;;11.10;99.90;;;;;;4755521;30;20017;-91
2022/09/18 11:36:40;;;;;;;;;;;11.00;99.90;;;;;;4761371;30;19983;-90
2022/09/18 11:39:14;;;;;;;;;;;11.10;99.90;;;;;;4758010;30;20392;-92
2022/09/18 11:41:43;;;;;;;;;;;11.10;99.90;;;;;;4759312;30;19932;-91
2022/09/18 11:44:24;;;;;;;;;;;11.10;99.90;;;;;;4759476;30;19982;-93
2022/09/18 11:47:08;;;;;;;;;;;11.30;99.90;;;;;;4755065;30;20012;-92
2022/09/18 11:49:44;;;;;;;;;;;11.20;99.90;;;;;;4760613;30;19978;-92
2022/09/18 11:52:09;;;;;;;;;;;11.20;99.90;;;;;;4769502;30;19933;-91
2022/09/18 11:54:43;;;;;;;;;;;12.30;99.90;;;;;;4759031;30;19925;-92
2022/09/18 11:57:18;;;;;;;;;;;11.20;99.90;;;;;;4774120;30;20335;-91
2022/09/18 11:59:48;;;;;;;;;;;11.30;99.90;;;;;;4776325;30;19926;-95
2022/09/18 12:02:20;;;;;;;;;;;11.30;99.90;;;;;;4748320;30;19925;-96
2022/09/18 12:04:51;;;;;;;;;;;11.50;99.90;;;;;;4755437;30;19987;-93
2022/09/18 12:07:37;;;;;;;;;;;11.40;99.90;;;;;;4766766;30;19969;-87
2022/09/18 12:10:27;;;;;;;;;;;;;;;;;;;;;
2022/09/18 12:12:59;;;;;;;;;;;11.50;99.90;;;;;;4761473;30;19929;-87
2022/09/18 12:15:32;;;;;;;;;;;11.50;99.90;;;;;;4768259;30;19926;-88
2022/09/18 12:18:08;;;;;;;;;;;10.60;99.90;;;;;;4745930;30;19930;-87
2022/09/18 12:20:40;;;;;;;;;;;11.60;99.90;;;;;;4760611;30;19948;-86
2022/09/18 12:23:10;;;;;;;;;;;11.60;99.90;;;;;;4764851;30;20297;-88
2022/09/18 12:25:41;;;;;;;;;;;11.60;99.90;;;;;;4749869;30;20276;-88
2022/09/18 12:28:28;;;;;;;;;;;11.70;99.90;;;;;;4785441;29;19926;-89
2022/09/18 12:31:12;;;;;;;;;;;11.20;99.90;;;;;;4759607;30;19932;-91
2022/09/18 12:34:01;;;;;;;;;;;11.70;99.90;;;;;;4746246;30;19926;-84
2022/09/18 12:36:37;;;;;;;;;;;;;;;;;;;;;
2022/09/18 12:39:15;;;;;;;;;;;11.80;99.90;;;;;;4773383;30;19929;-89
2022/09/18 12:41:49;;;;;;;;;;;11.80;99.90;;;;;;4758717;30;19925;-90
2022/09/18 12:44:14;;;;;;;;;;;11.80;99.90;;;;;;4759087;30;19936;-90
2022/09/18 12:46:52;;;;;;;;;;;11.80;99.90;;;;;;4759750;30;19925;-90
2022/09/18 12:49:22;;;;;;;;;;;11.90;99.90;;;;;;4759084;30;20424;-89
2022/09/18 12:51:55;;;;;;;;;;;13.00;99.90;;;;;;4759007;30;20046;-90
2022/09/18 12:54:21;;;;;;;;;;;13.00;99.90;;;;;;4758866;30;19975;-90
2022/09/18 12:57:06;;;;;;;;;;;11.80;99.90;;;;;;4758668;30;19972;-90
2022/09/18 12:59:34;;;;;;;;;;;12.00;99.90;;;;;;4759591;30;19925;-90
2022/09/18 13:02:17;;;;;;;;;;;11.90;99.90;;;;;;4760567;30;19948;-91
2022/09/18 13:04:47;;;;;;;;;;;11.90;99.90;;;;;;4759060;30;19933;-90
2022/09/18 13:07:17;;;;;;;;;;;12.10;99.90;;;;;;4757605;30;20043;-90
2022/09/18 13:09:50;;;;;;;;;;;12.00;99.90;;;;;;4772660;30;19983;-90
2022/09/18 13:12:44;;;;;;;;;;;12.10;99.90;;;;;;4772412;30;19929;-90
2022/09/18 13:15:19;;;;;;;;;;;11.20;99.90;;;;;;4759645;30;20032;-91
2022/09/18 13:17:50;;;;;;;;;;;12.20;99.90;;;;;;4757661;30;20294;-90
2022/09/18 13:20:24;;;;;;;;;;;12.30;99.90;;;;;;4756921;30;19932;-90
2022/09/18 13:22:53;;;;;;;;;;;12.30;99.90;;;;;;4757617;30;19972;-90
2022/09/18 13:25:22;;;;;;;;;;;12.30;99.90;;;;;;4756955;30;19929;-90
2022/09/18 13:27:49;;;;;;;;;;;13.50;99.90;;;;;;4757597;30;19983;-90
2022/09/18 13:30:22;;;;;;;;;;;12.30;99.90;;;;;;4757243;30;20292;-90
2022/09/18 13:32:48;;;;;;;;;;;12.30;99.90;;;;;;4757495;30;19925;-90
2022/09/18 13:35:24;;;;;;;;;;;12.10;99.90;;;;;;4757026;30;19925;-90
2022/09/18 13:38:13;;;;;;;;;;;12.10;99.90;;;;;;4757568;30;19959;-90
2022/09/18 13:43:30;;;;;;;;;;;11.90;99.90;;;;;;4772119;30;19925;-90
2022/09/18 13:46:00;;;;;;;;;;;11.90;99.90;;;;;;4759021;30;19975;-90
2022/09/18 13:48:34;;;;;;;;;;;12.00;99.90;;;;;;4759456;30;19975;-91
2022/09/18 13:51:31;;;;;;;;;;;11.90;99.90;;;;;;4772481;30;19978;-90
2022/09/18 13:54:17;;;;;;;;;;;11.90;99.90;;;;;;4750261;30;19945;-90
2022/09/18 13:57:09;;;;;;;;;;;12.00;99.90;;;;;;4757013;30;19929;-90
2022/09/18 13:59:54;;;;;;;;;;;11.20;99.90;;;;;;4757426;30;19925;-90
2022/09/18 14:02:37;;;;;;;;;;;12.00;99.90;;;;;;4756849;30;19951;-90
2022/09/18 14:05:03;;;;;;;;;;;11.90;99.90;;;;;;4772410;30;20432;-90
2022/09/18 14:07:32;;;;;;;;;;;12.00;99.90;;;;;;4772869;30;19926;-90
2022/09/18 14:10:02;;;;;;;;;;;12.80;99.90;;;;;;4757499;30;20397;-90
2022/09/18 14:12:31;;;;;;;;;;;11.20;99.90;;;;;;4757186;30;19926;-90
2022/09/18 14:15:05;;;;;;;;;;;12.00;99.90;;;;;;4759314;30;20289;-90
2022/09/18 14:17:32;;;;;;;;;;;12.00;99.90;;;;;;4758916;30;19930;-90
2022/09/18 14:20:04;;;;;;;;;;;11.00;99.90;;;;;;4757660;30;19937;-91
2022/09/18 14:22:33;;;;;;;;;;;12.00;99.90;;;;;;4757932;30;19926;-91
2022/09/18 14:25:06;;;;;;;;;;;11.90;99.90;;;;;;4757648;30;20061;-90
2022/09/18 14:27:36;;;;;;;;;;;11.90;99.90;;;;;;4758817;30;19932;-91
2022/09/18 14:30:10;;;;;;;;;;;11.90;99.90;;;;;;4758075;30;19932;-90
2022/09/18 14:32:36;;;;;;;;;;;12.00;99.90;;;;;;4758233;30;19925;-90
2022/09/18 14:35:21;;;;;;;;;;;11.80;99.90;;;;;;4774723;30;19925;-89
2022/09/18 14:37:46;;;;;;;;;;;11.90;99.90;;;;;;4757186;30;19926;-90
2022/09/18 14:40:20;;;;;;;;;;;11.70;99.90;;;;;;4757479;30;19925;-89
2022/09/18 14:42:46;;;;;;;;;;;11.60;99.90;;;;;;4773174;30;20369;-89
2022/09/18 14:45:12;;;;;;;;;;;11.40;99.90;;;;;;4759016;30;20293;-90
2022/09/18 14:47:47;;;;;;;;;;;11.40;99.90;;;;;;4757766;30;19925;-90
2022/09/18 14:50:32;;;;;;;;;;;11.30;99.90;;;;;;4757915;30;19930;-89